createdAt,value
2019-03-31T00:04:06.365Z,97274.54
2019-03-31T00:09:01.026Z,97269.70
2019-03-31T00:13:56.395Z,97271.95
2019-03-31T00:18:50.982Z,97268.79
2019-03-31T00:23:45.555Z,97262.36
2019-03-31T00:28:40.247Z,97270.02
2019-03-31T00:33:34.895Z,97271.20
2019-03-31T00:38:29.498Z,97272.58
2019-03-31T00:43:24.075Z,97269.22
2019-03-31T00:48:18.673Z,97269.30
2019-03-31T00:53:13.246Z,97269.72
2019-03-31T00:58:07.856Z,97268.84
2019-03-31T01:03:02.434Z,97270.44
2019-03-31T01:07:57.263Z,97270.41
2019-03-31T01:12:52.352Z,97275.77
2019-03-31T01:17:47.619Z,97268.47
2019-03-31T01:22:42.282Z,97264.20
2019-03-31T01:27:37.582Z,97256.98
2019-03-31T01:32:32.305Z,97261.27
2019-03-31T01:37:27.614Z,97273.16
2019-03-31T01:42:22.327Z,97271.95
2019-03-31T01:47:16.991Z,97271.31
2019-03-31T01:52:11.905Z,97267.48
2019-03-31T01:57:06.752Z,97273.34
2019-03-31T02:02:04.459Z,97277.14
2019-03-31T02:06:57.948Z,97272.45
2019-03-31T02:11:52.513Z,97267.77
2019-03-31T02:16:47.124Z,97271.87
2019-03-31T02:21:41.687Z,97276.77
2019-03-31T02:26:36.306Z,97272.33
2019-03-31T02:31:30.955Z,97268.35
2019-03-31T02:36:25.855Z,97264.45
2019-03-31T02:41:20.452Z,97269.23
2019-03-31T02:46:15.584Z,97281.56
2019-03-31T02:51:10.339Z,97277.39
2019-03-31T02:56:06.302Z,97261.55
2019-03-31T03:01:01.188Z,97264.33
2019-03-31T03:05:59.542Z,97251.47
2019-03-31T03:10:54.629Z,97247.78
2019-03-31T03:16:08.903Z,97250.12
2019-03-31T03:21:03.451Z,97256.98
2019-03-31T03:25:58.470Z,97248.09
2019-03-31T03:30:53.120Z,97257.37
2019-03-31T03:35:47.927Z,97252.97
2019-03-31T03:40:42.522Z,97241.20
2019-03-31T03:45:37.308Z,97246.12
2019-03-31T03:50:31.913Z,97236.12
2019-03-31T03:55:26.556Z,97242.04
2019-03-31T04:00:21.141Z,97241.17
2019-03-31T04:05:15.742Z,97244.02
2019-03-31T04:10:43.374Z,97233.05
2019-03-31T04:15:38.029Z,97235.80
2019-03-31T04:20:32.623Z,97241.00
2019-03-31T04:25:27.197Z,97242.84
2019-03-31T04:30:21.783Z,97240.63
2019-03-31T04:35:16.381Z,97250.31
2019-03-31T04:40:10.956Z,97248.23
2019-03-31T04:45:07.280Z,97253.61
2019-03-31T04:50:01.941Z,97252.67
2019-03-31T04:54:56.519Z,97257.36
2019-03-31T04:59:51.106Z,97254.11
2019-03-31T05:04:45.685Z,97253.75
2019-03-31T05:09:40.289Z,97257.72
2019-03-31T05:14:34.879Z,97258.88
2019-03-31T05:19:29.439Z,97262.63
2019-03-31T05:24:24.035Z,97257.73
2019-03-31T05:29:18.719Z,97255.15
2019-03-31T05:34:19.208Z,97259.14
2019-03-31T05:39:09.617Z,97252.48
2019-03-31T05:44:05.999Z,97252.78
2019-03-31T05:49:00.794Z,97250.68
2019-03-31T05:53:55.366Z,97250.09
2019-03-31T05:58:49.959Z,97244.76
2019-03-31T06:03:44.528Z,97241.63
2019-03-31T06:08:39.145Z,97244.04
2019-03-31T06:13:33.833Z,97242.35
2019-03-31T06:18:28.433Z,97247.41
2019-03-31T06:23:23.015Z,97236.86
2019-03-31T06:28:17.684Z,97242.16
2019-03-31T06:33:12.273Z,97246.08
2019-03-31T06:38:19.152Z,97257.00
2019-03-31T06:43:13.742Z,97252.53
2019-03-31T06:48:08.426Z,97256.56
2019-03-31T06:53:03.011Z,97259.38
2019-03-31T06:57:57.605Z,97259.84
2019-03-31T07:02:52.188Z,97263.44
2019-03-31T07:07:46.798Z,97269.69
2019-03-31T07:12:41.377Z,97266.80
2019-03-31T07:17:35.978Z,97262.78
2019-03-31T07:22:30.567Z,97267.38
2019-03-31T07:27:25.177Z,97262.81
2019-03-31T07:32:19.767Z,97261.42
2019-03-31T07:37:14.367Z,97260.59
2019-03-31T07:42:10.125Z,97265.48
2019-03-31T07:47:04.928Z,97260.61
2019-03-31T07:51:59.510Z,97254.98
2019-03-31T07:56:54.105Z,97253.16
2019-03-31T08:01:48.689Z,97245.93
2019-03-31T08:06:43.325Z,97242.96
2019-03-31T08:11:37.906Z,97246.90
2019-03-31T08:16:32.581Z,97248.19
2019-03-31T08:21:27.166Z,97250.11
2019-03-31T08:26:21.793Z,97250.52
2019-03-31T08:31:16.370Z,97245.88
2019-03-31T08:36:10.982Z,97248.48
2019-03-31T08:41:05.628Z,97241.16
2019-03-31T08:46:01.002Z,97242.80
2019-03-31T08:50:55.583Z,97240.63
2019-03-31T08:55:50.190Z,97238.33
2019-03-31T09:00:49.088Z,97242.66
2019-03-31T09:05:43.705Z,97226.36
2019-03-31T09:10:38.287Z,97232.69
2019-03-31T09:15:32.899Z,97224.91
2019-03-31T09:20:27.486Z,97215.90
2019-03-31T09:25:22.088Z,97206.23
2019-03-31T09:30:18.381Z,97196.23
2019-03-31T09:35:13.179Z,97204.20
2019-03-31T09:40:10.389Z,97200.06
2019-03-31T09:45:07.520Z,97193.92
2019-03-31T09:50:02.105Z,97185.34
2019-03-31T09:54:56.712Z,97192.06
2019-03-31T09:59:51.296Z,97182.97
2019-03-31T10:04:45.908Z,97177.66
2019-03-31T10:09:40.963Z,97173.50
2019-03-31T10:14:35.548Z,97164.67
2019-03-31T10:19:30.170Z,97160.67
2019-03-31T10:24:24.758Z,97153.09
2019-03-31T10:29:19.411Z,97133.23
2019-03-31T10:34:14.004Z,97133.20
2019-03-31T10:39:09.695Z,97128.83
2019-03-31T10:44:04.608Z,97121.52
2019-03-31T10:48:59.189Z,97120.73
2019-03-31T10:53:53.779Z,97104.61
2019-03-31T10:58:48.370Z,97103.56
2019-03-31T11:03:42.970Z,97102.35
2019-03-31T11:08:37.564Z,97090.01
2019-03-31T11:13:32.159Z,97080.14
2019-03-31T11:18:26.745Z,97074.73
2019-03-31T11:23:23.004Z,97061.92
2019-03-31T11:28:17.674Z,97054.66
2019-03-31T11:33:12.277Z,97049.88
2019-03-31T11:38:06.858Z,97043.41
2019-03-31T11:43:01.442Z,97037.05
2019-03-31T11:47:56.041Z,97030.81
2019-03-31T11:52:50.631Z,97028.25
2019-03-31T11:57:46.049Z,97015.55
2019-03-31T12:02:40.648Z,97015.89
2019-03-31T12:07:46.061Z,97014.84
2019-03-31T12:12:31.556Z,97004.22
2019-03-31T12:17:26.131Z,96993.09
2019-03-31T12:22:20.737Z,96981.70
2019-03-31T12:27:15.331Z,96970.27
2019-03-31T12:32:09.930Z,96973.47
2019-03-31T12:37:04.575Z,96956.97
2019-03-31T12:41:59.174Z,96963.61
2019-03-31T12:46:56.152Z,96962.02
2019-03-31T12:51:50.075Z,96955.63
2019-03-31T12:56:44.662Z,96960.14
2019-03-31T13:01:39.252Z,96940.22
2019-03-31T13:06:33.824Z,96928.76
2019-03-31T13:11:28.447Z,96922.31
2019-03-31T13:16:23.004Z,96907.88
2019-03-31T13:21:17.620Z,96920.47
2019-03-31T13:26:12.198Z,96909.81
2019-03-31T13:31:06.798Z,96895.17
2019-03-31T13:36:01.377Z,96892.79
2019-03-31T13:40:55.992Z,96883.47
2019-03-31T13:45:50.564Z,96884.20
2019-03-31T13:50:45.159Z,96873.84
2019-03-31T13:55:39.729Z,96878.39
2019-03-31T14:00:38.370Z,96867.60
2019-03-31T14:05:33.046Z,96856.14
2019-03-31T14:10:27.646Z,96862.30
2019-03-31T14:15:22.233Z,96854.46
2019-03-31T14:20:16.891Z,96846.92
2019-03-31T14:25:11.605Z,96837.81
2019-03-31T14:30:09.412Z,96845.87
2019-03-31T14:35:04.941Z,96841.41
2019-03-31T14:39:59.553Z,96844.78
2019-03-31T14:44:54.217Z,96835.21
2019-03-31T14:49:48.807Z,96831.95
2019-03-31T14:54:43.385Z,96841.24
2019-03-31T14:59:37.976Z,96840.70
2019-03-31T15:04:32.540Z,96834.84
2019-03-31T15:09:27.140Z,96826.63
2019-03-31T15:14:21.725Z,96826.39
2019-03-31T15:19:16.326Z,96820.56
2019-03-31T15:24:10.904Z,96825.17
2019-03-31T15:29:05.768Z,96819.31
2019-03-31T15:34:00.408Z,96827.27
2019-03-31T15:39:08.152Z,96816.43
2019-03-31T15:43:51.342Z,96818.65
2019-03-31T15:48:45.946Z,96826.62
2019-03-31T15:53:40.536Z,96818.23
2019-03-31T15:58:35.134Z,96815.55
2019-03-31T16:03:29.751Z,96815.84
2019-03-31T16:08:24.307Z,96819.27
2019-03-31T16:13:19.068Z,96807.55
2019-03-31T16:18:13.665Z,96810.99
2019-03-31T16:23:08.244Z,96809.11
2019-03-31T16:28:02.835Z,96805.41
2019-03-31T16:32:57.413Z,96804.11
2019-03-31T16:37:52.094Z,96804.11
2019-03-31T16:42:46.693Z,96809.20
2019-03-31T16:47:41.316Z,96804.75
2019-03-31T16:52:35.918Z,96813.77
2019-03-31T16:57:30.537Z,96805.03
2019-03-31T17:02:25.110Z,96817.30
2019-03-31T17:07:19.704Z,96815.45
2019-03-31T17:12:14.355Z,96810.16
2019-03-31T17:17:08.989Z,96813.37
2019-03-31T17:22:03.571Z,96809.69
2019-03-31T17:26:58.155Z,96819.79
2019-03-31T17:31:52.727Z,96817.12
2019-03-31T17:36:47.324Z,96826.66
2019-03-31T17:41:41.906Z,96826.88
2019-03-31T17:46:36.484Z,96826.60
2019-03-31T17:51:31.065Z,96829.75
2019-03-31T17:56:25.666Z,96833.14
2019-03-31T18:01:20.247Z,96841.80
2019-03-31T18:06:14.856Z,96839.41
2019-03-31T18:11:09.439Z,96848.09
2019-03-31T18:16:04.255Z,96845.63
2019-03-31T18:21:00.131Z,96848.58
2019-03-31T18:25:54.727Z,96851.14
2019-03-31T18:30:49.303Z,96857.68
2019-03-31T18:35:43.915Z,96867.19
2019-03-31T18:40:39.239Z,96871.81
2019-03-31T18:45:33.829Z,96886.31
2019-03-31T18:50:28.416Z,96880.99
2019-03-31T18:55:40.844Z,96882.19
2019-03-31T19:00:37.077Z,96888.72
2019-03-31T19:05:49.093Z,96893.98
2019-03-31T19:10:58.428Z,96901.25
2019-03-31T19:16:10.752Z,96899.27
2019-03-31T19:21:11.455Z,96907.80
2019-03-31T19:26:06.701Z,96912.11
2019-03-31T19:31:18.791Z,96913.49
2019-03-31T19:36:30.881Z,96921.18
2019-03-31T19:41:39.142Z,96921.72
2019-03-31T19:46:45.583Z,96923.27
2019-03-31T19:51:58.036Z,96922.14
2019-03-31T19:57:05.450Z,96922.40
2019-03-31T20:02:19.776Z,96933.18
2019-03-31T20:07:31.310Z,96929.86
2019-03-31T20:12:30.191Z,96934.52
2019-03-31T20:17:29.596Z,96932.75
2019-03-31T20:22:34.331Z,96945.00
2019-03-31T20:27:39.806Z,96946.39
2019-03-31T20:32:52.051Z,96953.54
2019-03-31T20:37:54.032Z,96959.73
2019-03-31T20:42:48.408Z,96956.59
2019-03-31T20:47:42.989Z,96964.74
2019-03-31T20:52:37.606Z,96954.66
2019-03-31T20:57:32.207Z,96956.48
2019-03-31T21:02:26.786Z,96954.64
2019-03-31T21:07:21.371Z,96954.84
2019-03-31T21:12:15.966Z,96961.28
2019-03-31T21:17:10.627Z,96961.73
2019-03-31T21:22:05.324Z,96966.91
2019-03-31T21:26:59.920Z,96967.45
2019-03-31T21:31:55.477Z,96971.11
2019-03-31T21:36:50.249Z,96976.01
2019-03-31T21:41:44.856Z,96974.36
2019-03-31T21:46:39.479Z,96974.23
2019-03-31T21:51:34.071Z,96980.41
2019-03-31T21:56:28.730Z,96979.89
2019-03-31T22:01:23.481Z,96976.73
2019-03-31T22:06:18.073Z,96979.27
2019-03-31T22:11:13.236Z,96978.87
2019-03-31T22:16:07.849Z,96982.02
2019-03-31T22:21:02.973Z,96978.94
2019-03-31T22:25:57.639Z,96975.52
2019-03-31T22:30:52.230Z,96970.72
2019-03-31T22:36:05.942Z,96964.81
2019-03-31T22:41:00.536Z,96966.25
2019-03-31T22:45:55.137Z,96964.13
2019-03-31T22:50:49.714Z,96964.58
2019-03-31T22:55:44.452Z,96950.06
2019-03-31T23:00:39.033Z,96959.23
2019-03-31T23:05:34.414Z,96959.33
2019-03-31T23:10:28.991Z,96962.83
2019-03-31T23:15:23.602Z,96958.06
2019-03-31T23:20:18.189Z,96955.85
2019-03-31T23:25:13.183Z,96945.72
2019-03-31T23:30:10.743Z,96954.30
2019-03-31T23:35:07.584Z,96949.08
2019-03-31T23:40:02.557Z,96937.30
2019-03-31T23:44:58.212Z,96942.23
2019-03-31T23:49:52.805Z,96945.23
2019-03-31T23:54:47.441Z,96951.25
2019-03-31T23:59:42.018Z,96945.70
